createdAt,value
2019-04-11T00:00:55.684Z,6.20
2019-04-11T00:03:21.908Z,5.62
2019-04-11T00:05:48.388Z,5.85
2019-04-11T00:08:14.674Z,5.95
2019-04-11T00:10:41.672Z,5.90
2019-04-11T00:13:17.130Z,6.70
2019-04-11T00:15:37.039Z,5.62
2019-04-11T00:18:04.099Z,5.22
2019-04-11T00:20:30.507Z,5.00
2019-04-11T00:22:57.653Z,5.80
2019-04-11T00:25:23.941Z,5.17
2019-04-11T00:27:51.011Z,5.08
2019-04-11T00:30:17.860Z,4.83
2019-04-11T00:32:45.443Z,4.97
2019-04-11T00:35:12.233Z,4.87
2019-04-11T00:37:38.497Z,4.75
2019-04-11T00:40:05.860Z,5.22
2019-04-11T00:42:32.192Z,5.50
2019-04-11T00:44:59.102Z,5.15
2019-04-11T00:47:25.509Z,4.53
2019-04-11T00:49:51.800Z,4.70
2019-04-11T00:52:18.435Z,4.60
2019-04-11T00:54:44.856Z,4.10
2019-04-11T00:57:11.198Z,4.65
2019-04-11T00:59:38.444Z,4.60
2019-04-11T01:02:05.194Z,4.55
2019-04-11T01:04:31.444Z,4.55
2019-04-11T01:06:58.577Z,4.20
2019-04-11T01:09:24.972Z,4.85
2019-04-11T01:11:52.186Z,4.05
2019-04-11T01:14:18.725Z,4.00
2019-04-11T01:16:50.635Z,4.00
2019-04-11T01:19:18.374Z,4.10
2019-04-11T01:21:45.078Z,4.22
2019-04-11T01:24:11.683Z,4.30
2019-04-11T01:26:38.220Z,3.50
2019-04-11T01:29:11.238Z,4.20
2019-04-11T01:31:39.957Z,4.00
2019-04-11T01:34:06.553Z,3.83
2019-04-11T01:36:33.257Z,3.65
2019-04-11T01:39:02.989Z,3.50
2019-04-11T01:41:29.281Z,3.25
2019-04-11T01:44:00.781Z,3.60
2019-04-11T01:46:24.386Z,3.12
2019-04-11T01:49:17.877Z,3.30
2019-04-11T01:51:44.220Z,3.62
2019-04-11T01:54:11.202Z,3.65
2019-04-11T01:56:39.081Z,3.70
2019-04-11T01:59:06.910Z,3.90
2019-04-11T02:01:35.402Z,4.17
2019-04-11T02:04:21.603Z,4.25
2019-04-11T02:06:48.104Z,3.90
2019-04-11T02:09:16.833Z,3.72
2019-04-11T02:11:43.243Z,3.87
2019-04-11T02:14:15.612Z,3.52
2019-04-11T02:16:37.983Z,3.87
2019-04-11T02:19:04.426Z,3.75
2019-04-11T02:21:30.678Z,3.90
2019-04-11T02:24:07.856Z,3.90
2019-04-11T02:26:38.835Z,3.67
2019-04-11T02:29:05.524Z,3.77
2019-04-11T02:31:33.428Z,3.90
2019-04-11T02:34:01.984Z,3.77
2019-04-11T02:36:30.079Z,3.72
2019-04-11T02:39:01.716Z,3.70
2019-04-11T02:41:27.371Z,4.42
2019-04-11T02:43:54.994Z,3.80
2019-04-11T02:46:31.877Z,3.80
2019-04-11T02:48:49.980Z,4.10
2019-04-11T02:51:18.273Z,3.90
2019-04-11T02:53:47.150Z,3.75
2019-04-11T02:56:15.030Z,4.00
2019-04-11T02:58:41.546Z,3.30
2019-04-11T03:01:11.791Z,4.10
2019-04-11T03:03:37.373Z,3.33
2019-04-11T03:06:04.507Z,3.67
2019-04-11T03:08:34.222Z,3.95
2019-04-11T03:10:59.633Z,3.67
2019-04-11T03:13:27.268Z,4.10
2019-04-11T03:16:07.213Z,3.62
2019-04-11T03:18:40.651Z,3.65
2019-04-11T03:20:56.858Z,3.90
2019-04-11T03:23:21.237Z,3.95
2019-04-11T03:25:49.086Z,4.20
2019-04-11T03:28:21.373Z,4.15
2019-04-11T03:31:04.289Z,3.72
2019-04-11T03:38:33.177Z,3.92
2019-04-11T03:40:57.704Z,3.83
2019-04-11T03:43:21.303Z,4.10
2019-04-11T03:45:52.539Z,3.80
2019-04-11T03:48:20.486Z,3.98
2019-04-11T03:50:34.809Z,3.40
2019-04-11T03:53:03.833Z,3.60
2019-04-11T03:55:31.928Z,4.12
2019-04-11T03:58:01.026Z,3.67
2019-04-11T04:00:33.545Z,3.95
2019-04-11T04:02:57.423Z,3.83
2019-04-11T04:05:26.141Z,3.80
2019-04-11T04:07:52.606Z,3.95
2019-04-11T04:10:21.194Z,3.77
2019-04-11T04:12:48.286Z,3.95
2019-04-11T04:15:48.888Z,4.00
2019-04-11T04:18:03.518Z,3.80
2019-04-11T04:20:39.508Z,3.85
2019-04-11T04:23:14.181Z,4.05
2019-04-11T04:25:42.881Z,3.65
2019-04-11T04:28:11.757Z,3.67
2019-04-11T04:30:41.060Z,4.28
2019-04-11T04:33:10.042Z,4.10
2019-04-11T04:35:36.368Z,4.20
2019-04-11T04:38:05.142Z,4.33
2019-04-11T04:40:49.568Z,4.55
2019-04-11T04:43:02.948Z,4.20
2019-04-11T04:45:30.247Z,4.00
2019-04-11T04:48:03.243Z,4.55
2019-04-11T04:50:26.720Z,4.30
2019-04-11T04:52:53.737Z,3.87
2019-04-11T04:55:21.705Z,4.30
2019-04-11T04:57:48.827Z,4.37
2019-04-11T05:00:15.231Z,4.10
2019-04-11T05:02:42.129Z,4.00
2019-04-11T05:05:11.316Z,4.08
2019-04-11T05:07:40.457Z,4.60
2019-04-11T05:10:07.295Z,4.03
2019-04-11T05:12:34.632Z,4.45
2019-04-11T05:15:01.483Z,4.17
2019-04-11T05:17:28.928Z,4.95
2019-04-11T05:19:56.399Z,4.62
2019-04-11T05:22:22.824Z,4.60
2019-04-11T05:24:49.138Z,5.00
2019-04-11T05:27:15.434Z,5.45
2019-04-11T05:29:41.805Z,5.37
2019-04-11T05:32:09.281Z,6.70
2019-04-11T05:34:35.792Z,6.60
2019-04-11T05:37:02.235Z,6.33
2019-04-11T05:39:28.737Z,5.75
2019-04-11T05:41:55.034Z,6.50
2019-04-11T05:44:21.327Z,6.05
2019-04-11T05:46:55.721Z,5.78
2019-04-11T05:49:24.194Z,5.85
2019-04-11T05:51:58.170Z,6.35
2019-04-11T05:54:26.002Z,5.70
2019-04-11T05:56:57.712Z,5.78
2019-04-11T05:59:24.465Z,6.28
2019-04-11T06:02:04.401Z,6.30
2019-04-11T06:04:30.251Z,5.90
2019-04-11T06:07:00.016Z,6.30
2019-04-11T06:09:38.174Z,6.60
2019-04-11T06:12:07.462Z,6.03
2019-04-11T06:14:37.620Z,6.45
2019-04-11T06:17:07.193Z,6.78
2019-04-11T06:22:21.344Z,6.05
2019-04-11T06:24:50.159Z,6.85
2019-04-11T06:27:18.540Z,7.05
2019-04-11T06:29:55.904Z,6.72
2019-04-11T06:32:40.792Z,5.90
2019-04-11T06:35:09.051Z,5.33
2019-04-11T06:37:38.112Z,6.47
2019-04-11T06:40:11.748Z,5.37
2019-04-11T06:42:39.900Z,6.42
2019-04-11T06:45:25.460Z,6.42
2019-04-11T06:47:53.736Z,6.15
2019-04-11T06:50:27.020Z,6.28
2019-04-11T06:52:53.426Z,6.17
2019-04-11T06:55:22.445Z,6.28
2019-04-11T06:58:09.215Z,6.60
2019-04-11T07:00:37.172Z,5.95
2019-04-11T07:03:06.727Z,6.17
2019-04-11T07:05:35.555Z,6.22
2019-04-11T07:08:03.714Z,6.60
2019-04-11T07:10:32.213Z,6.97
2019-04-11T07:13:03.683Z,6.67
2019-04-11T07:15:37.703Z,6.58
2019-04-11T07:18:22.681Z,7.40
2019-04-11T07:20:58.551Z,6.85
2019-04-11T07:23:44.705Z,7.67
2019-04-11T07:26:29.388Z,8.13
2019-04-11T07:29:15.860Z,8.08
2019-04-11T07:31:50.398Z,8.10
2019-04-11T07:34:31.456Z,7.80
2019-04-11T07:37:14.953Z,8.35
2019-04-11T07:40:00.804Z,8.20
2019-04-11T07:42:39.108Z,8.45
2019-04-11T07:45:17.380Z,8.13
2019-04-11T07:47:46.062Z,8.40
2019-04-11T07:50:15.290Z,7.90
2019-04-11T07:52:51.731Z,7.12
2019-04-11T07:55:21.027Z,6.87
2019-04-11T07:57:49.482Z,7.03
2019-04-11T08:00:17.824Z,7.58
2019-04-11T08:03:04.006Z,7.28
2019-04-11T08:05:36.702Z,7.40
2019-04-11T08:08:06.783Z,7.03
2019-04-11T08:10:35.550Z,6.12
2019-04-11T08:13:12.810Z,6.70
2019-04-11T08:15:57.908Z,6.50
2019-04-11T08:18:26.577Z,6.80
2019-04-11T08:21:12.131Z,7.03
2019-04-11T08:23:40.548Z,6.20
2019-04-11T08:26:26.249Z,5.83
2019-04-11T08:29:01.613Z,6.15
2019-04-11T08:31:40.605Z,5.50
2019-04-11T08:34:07.003Z,5.53
2019-04-11T08:36:38.138Z,5.78
2019-04-11T08:39:06.894Z,5.80
2019-04-11T08:41:35.908Z,5.25
2019-04-11T08:44:03.543Z,5.78
2019-04-11T08:46:33.052Z,5.50
2019-04-11T08:49:07.811Z,5.53
2019-04-11T08:51:35.734Z,4.90
2019-04-11T08:54:21.767Z,4.60
2019-04-11T08:56:49.427Z,5.22
2019-04-11T08:59:35.832Z,4.70
2019-04-11T09:02:02.976Z,5.08
2019-04-11T09:04:32.348Z,5.75
2019-04-11T09:06:59.473Z,5.05
2019-04-11T09:09:47.386Z,5.00
2019-04-11T09:12:14.166Z,4.80
2019-04-11T09:15:06.600Z,4.70
2019-04-11T09:17:35.047Z,4.60
2019-04-11T09:20:09.546Z,4.80
2019-04-11T09:22:37.837Z,4.40
2019-04-11T09:25:10.915Z,4.35
2019-04-11T09:27:48.981Z,3.83
2019-04-11T09:30:34.670Z,3.72
2019-04-11T09:33:20.751Z,3.30
2019-04-11T09:36:05.899Z,4.15
2019-04-11T09:38:49.264Z,3.80
2019-04-11T09:41:24.793Z,4.47
2019-04-11T09:43:53.101Z,4.05
2019-04-11T09:46:24.286Z,4.22
2019-04-11T09:49:09.152Z,4.40
2019-04-11T09:51:38.115Z,4.33
2019-04-11T09:54:21.714Z,3.92
2019-04-11T09:57:04.902Z,3.50
2019-04-11T09:59:49.971Z,3.80
2019-04-11T10:02:36.485Z,3.47
2019-04-11T10:05:05.568Z,3.25
2019-04-11T10:07:50.326Z,3.77
2019-04-11T10:10:28.951Z,3.60
2019-04-11T10:13:13.673Z,3.58
2019-04-11T10:15:51.542Z,4.28
2019-04-11T10:18:27.764Z,4.20
2019-04-11T10:20:52.940Z,3.72
2019-04-11T10:23:21.231Z,3.83
2019-04-11T10:25:48.136Z,3.55
2019-04-11T10:28:33.484Z,3.55
2019-04-11T10:31:08.568Z,3.40
2019-04-11T10:33:43.163Z,3.27
2019-04-11T10:36:29.347Z,7.10
2019-04-11T10:39:06.916Z,4.92
2019-04-11T10:41:35.197Z,4.67
2019-04-11T10:44:02.460Z,4.30
2019-04-11T10:46:44.483Z,3.95
2019-04-11T10:49:21.987Z,3.50
2019-04-11T10:51:52.382Z,3.30
2019-04-11T10:54:19.739Z,8.25
2019-04-11T10:57:05.624Z,3.00
2019-04-11T10:59:34.470Z,3.40
2019-04-11T11:02:10.705Z,3.67
2019-04-11T11:04:39.327Z,3.12
2019-04-11T11:07:09.699Z,3.60
2019-04-11T11:09:50.521Z,3.62
2019-04-11T11:12:21.694Z,3.35
2019-04-11T11:15:09.277Z,3.42
2019-04-11T11:18:24.054Z,3.60
2019-04-11T11:20:50.119Z,3.10
2019-04-11T11:23:18.526Z,5.53
2019-04-11T11:25:49.982Z,3.65
2019-04-11T11:28:17.920Z,3.47
2019-04-11T11:30:47.392Z,3.60
2019-04-11T11:33:14.111Z,3.52
2019-04-11T11:35:52.078Z,3.42
2019-04-11T11:38:21.856Z,3.10
2019-04-11T11:40:54.139Z,5.55
2019-04-11T11:43:23.176Z,4.45
2019-04-11T11:46:00.903Z,3.30
2019-04-11T11:48:33.324Z,4.67
2019-04-11T11:51:01.857Z,3.37
2019-04-11T11:53:42.794Z,3.72
2019-04-11T11:56:11.207Z,3.50
2019-04-11T11:58:39.585Z,4.10
2019-04-11T12:01:09.424Z,6.12
2019-04-11T12:03:40.296Z,5.67
2019-04-11T12:06:09.459Z,4.58
2019-04-11T12:08:39.111Z,2.90
2019-04-11T12:11:08.116Z,3.50
2019-04-11T12:13:53.708Z,3.80
2019-04-11T12:16:22.189Z,2.95
2019-04-11T12:18:54.967Z,3.10
2019-04-11T12:21:32.142Z,3.75
2019-04-11T12:24:06.416Z,3.35
2019-04-11T12:26:35.967Z,3.05
2019-04-11T12:29:14.297Z,3.10
2019-04-11T12:31:44.006Z,2.95
2019-04-11T12:34:30.461Z,2.98
2019-04-11T12:36:57.997Z,3.00
2019-04-11T12:39:44.668Z,2.60
2019-04-11T12:42:15.967Z,3.27
2019-04-11T12:45:00.768Z,2.90
2019-04-11T12:47:29.066Z,2.80
2019-04-11T12:50:14.835Z,2.30
2019-04-11T12:52:43.322Z,2.40
2019-04-11T12:55:17.620Z,2.70
2019-04-11T12:57:51.974Z,2.62
2019-04-11T13:00:20.548Z,7.37
2019-04-11T13:03:05.532Z,3.50
2019-04-11T13:05:36.439Z,2.98
2019-04-11T13:08:14.146Z,2.40
2019-04-11T13:10:42.491Z,2.70
2019-04-11T13:13:19.700Z,2.40
2019-04-11T13:15:51.113Z,2.67
2019-04-11T13:18:22.217Z,3.20
2019-04-11T13:20:56.398Z,2.50
2019-04-11T13:23:33.842Z,2.70
2019-04-11T13:26:14.270Z,2.67
2019-04-11T13:28:42.566Z,3.17
2019-04-11T13:31:25.769Z,2.75
2019-04-11T13:33:53.991Z,4.47
2019-04-11T13:36:39.052Z,3.58
2019-04-11T13:39:06.379Z,4.90
2019-04-11T13:41:34.806Z,3.65
2019-04-11T13:44:20.932Z,3.08
2019-04-11T13:46:54.287Z,2.95
2019-04-11T13:49:22.811Z,2.92
2019-04-11T13:51:51.194Z,2.50
2019-04-11T13:54:36.605Z,2.47
2019-04-11T13:57:21.545Z,2.62
2019-04-11T14:00:01.683Z,2.70
2019-04-11T14:02:50.657Z,2.67
2019-04-11T14:05:11.913Z,3.25
2019-04-11T14:07:38.360Z,3.00
2019-04-11T14:10:07.228Z,2.52
2019-04-11T14:12:35.908Z,3.00
2019-04-11T14:15:13.892Z,2.58
2019-04-11T14:17:45.102Z,5.72
2019-04-11T14:20:28.687Z,3.02
2019-04-11T14:23:04.640Z,2.50
2019-04-11T14:25:42.688Z,2.40
2019-04-11T14:28:11.287Z,2.50
2019-04-11T14:30:39.609Z,3.60
2019-04-11T14:33:06.220Z,6.28
2019-04-11T14:35:50.974Z,4.22
2019-04-11T14:38:19.210Z,3.77
2019-04-11T14:41:01.924Z,3.12
2019-04-11T14:43:30.116Z,3.17
2019-04-11T14:46:14.754Z,2.95
2019-04-11T14:48:42.981Z,2.75
2019-04-11T14:51:28.717Z,3.10
2019-04-11T14:54:12.138Z,3.27
2019-04-11T14:56:40.424Z,2.95
2019-04-11T14:59:14.667Z,3.30
2019-04-11T15:01:44.065Z,3.30
2019-04-11T15:04:24.255Z,3.10
2019-04-11T15:06:52.905Z,3.30
2019-04-11T15:09:24.149Z,3.75
2019-04-11T15:11:55.327Z,4.22
2019-04-11T15:14:41.579Z,6.15
2019-04-11T15:17:28.147Z,3.90
2019-04-11T15:20:14.736Z,3.92
2019-04-11T15:22:43.266Z,4.17
2019-04-11T15:25:14.463Z,4.50
2019-04-11T15:27:45.812Z,4.40
2019-04-11T15:30:17.362Z,4.92
2019-04-11T15:32:51.278Z,4.95
2019-04-11T15:35:17.580Z,3.87
2019-04-11T15:38:02.399Z,3.42
2019-04-11T15:40:28.891Z,3.42
2019-04-11T15:42:57.303Z,3.72
2019-04-11T15:45:40.813Z,3.67
2019-04-11T15:48:09.204Z,3.47
2019-04-11T15:51:05.818Z,4.47
2019-04-11T15:53:24.314Z,3.30
2019-04-11T15:56:11.001Z,8.23
2019-04-11T15:58:45.197Z,4.47
2019-04-11T16:01:13.592Z,3.42
2019-04-11T16:03:40.197Z,3.62
2019-04-11T16:06:24.933Z,3.70
2019-04-11T16:08:51.202Z,3.35
2019-04-11T16:11:28.323Z,3.55
2019-04-11T16:13:56.567Z,4.45
2019-04-11T16:16:25.076Z,3.55
2019-04-11T16:19:10.089Z,6.42
2019-04-11T16:21:40.978Z,6.28
2019-04-11T16:24:09.254Z,4.42
2019-04-11T16:26:46.555Z,4.00
2019-04-11T16:29:25.610Z,3.40
2019-04-11T16:31:53.800Z,4.47
2019-04-11T16:34:24.902Z,3.50
2019-04-11T16:36:51.826Z,3.37
2019-04-11T16:39:25.904Z,5.03
2019-04-11T16:41:53.916Z,3.92
2019-04-11T16:44:24.807Z,5.10
2019-04-11T16:47:04.775Z,5.42
2019-04-11T16:49:31.149Z,4.15
2019-04-11T16:51:57.601Z,4.05
2019-04-11T16:54:24.701Z,4.05
2019-04-11T16:56:51.270Z,5.72
2019-04-11T16:59:19.968Z,4.35
2019-04-11T17:01:45.901Z,3.95
2019-04-11T17:04:12.308Z,4.17
2019-04-11T17:06:40.472Z,7.50
2019-04-11T17:09:08.929Z,9.78
2019-04-11T17:11:37.373Z,5.75
2019-04-11T17:14:04.022Z,7.05
2019-04-11T17:16:31.024Z,10.40
2019-04-11T17:18:57.331Z,7.20
2019-04-11T17:21:23.781Z,5.50
2019-04-11T17:23:50.183Z,5.80
2019-04-11T17:26:16.554Z,5.05
2019-04-11T17:28:43.481Z,6.08
2019-04-11T17:31:10.093Z,14.00
2019-04-11T17:33:36.396Z,8.15
2019-04-11T17:36:03.057Z,4.78
2019-04-11T17:38:29.473Z,4.08
2019-04-11T17:40:55.815Z,4.90
2019-04-11T17:43:25.173Z,6.70
2019-04-11T17:45:56.895Z,5.33
2019-04-11T17:48:25.771Z,5.62
2019-04-11T17:50:51.730Z,5.30
2019-04-11T17:53:22.666Z,4.50
2019-04-11T17:55:51.980Z,4.10
2019-04-11T17:58:18.082Z,5.92
2019-04-11T18:00:46.788Z,3.70
2019-04-11T18:03:13.296Z,6.12
2019-04-11T18:05:39.821Z,4.50
2019-04-11T18:08:06.352Z,4.15
2019-04-11T18:10:32.784Z,4.62
2019-04-11T18:13:01.175Z,5.10
2019-04-11T18:15:28.808Z,4.50
2019-04-11T18:17:55.806Z,4.45
2019-04-11T18:20:22.747Z,5.10
2019-04-11T18:22:50.435Z,6.45
2019-04-11T18:25:20.749Z,6.08
2019-04-11T18:27:45.618Z,6.35
2019-04-11T18:30:12.621Z,6.33
2019-04-11T18:32:39.414Z,5.70
2019-04-11T18:35:06.263Z,4.22
2019-04-11T18:37:32.730Z,5.78
2019-04-11T18:39:59.132Z,5.80
2019-04-11T18:42:25.748Z,5.53
2019-04-11T18:44:52.061Z,5.42
2019-04-11T18:47:18.712Z,4.40
2019-04-11T18:49:45.174Z,4.47
2019-04-11T18:52:19.691Z,4.78
2019-04-11T18:54:39.894Z,4.12
2019-04-11T18:57:06.535Z,4.83
2019-04-11T18:59:33.984Z,4.10
2019-04-11T19:02:03.450Z,4.28
2019-04-11T19:04:32.585Z,4.30
2019-04-11T19:06:58.568Z,4.00
2019-04-11T19:09:25.512Z,4.12
2019-04-11T19:11:52.197Z,4.58
2019-04-11T19:14:18.807Z,4.10
2019-04-11T19:16:45.996Z,4.80
2019-04-11T19:19:13.406Z,4.42
2019-04-11T19:21:39.808Z,4.92
2019-04-11T19:24:09.062Z,4.67
2019-04-11T19:26:34.406Z,5.37
2019-04-11T19:29:01.248Z,5.50
2019-04-11T19:31:28.413Z,4.53
2019-04-11T19:33:54.885Z,4.90
2019-04-11T19:36:21.408Z,4.40
2019-04-11T19:38:47.852Z,4.03
2019-04-11T19:41:17.154Z,4.90
2019-04-11T19:43:42.250Z,4.30
2019-04-11T19:46:08.896Z,4.65
2019-04-11T19:48:35.501Z,4.53
2019-04-11T19:51:02.239Z,5.37
2019-04-11T19:53:32.747Z,4.80
2019-04-11T19:56:05.360Z,5.90
2019-04-11T19:58:32.489Z,5.78
2019-04-11T20:00:58.952Z,4.80
2019-04-11T20:03:25.335Z,6.33
2019-04-11T20:05:51.623Z,5.37
2019-04-11T20:08:18.298Z,5.90
2019-04-11T20:10:44.575Z,5.90
2019-04-11T20:13:11.076Z,4.83
2019-04-11T20:15:41.747Z,5.00
2019-04-11T20:18:05.652Z,5.22
2019-04-11T20:20:32.050Z,5.03
2019-04-11T20:22:59.493Z,4.42
2019-04-11T20:25:26.071Z,4.95
2019-04-11T20:27:52.471Z,5.05
2019-04-11T20:30:19.238Z,6.58
2019-04-11T20:32:45.614Z,4.92
2019-04-11T20:35:12.241Z,5.42
2019-04-11T20:37:44.399Z,4.55
2019-04-11T20:40:11.297Z,5.30
2019-04-11T20:42:37.642Z,5.37
2019-04-11T20:45:05.214Z,5.08
2019-04-11T20:47:31.493Z,5.15
2019-04-11T20:49:58.054Z,5.40
2019-04-11T20:52:24.338Z,5.20
2019-04-11T20:54:50.623Z,5.12
2019-04-11T20:57:25.655Z,5.22
2019-04-11T20:59:45.294Z,5.42
2019-04-11T21:02:11.610Z,5.08
2019-04-11T21:04:38.283Z,5.42
2019-04-11T21:07:04.545Z,5.17
2019-04-11T21:09:33.084Z,5.37
2019-04-11T21:11:59.064Z,4.97
2019-04-11T21:14:25.337Z,4.95
2019-04-11T21:16:51.680Z,5.47
2019-04-11T21:19:18.221Z,5.30
2019-04-11T21:21:44.541Z,5.45
2019-04-11T21:24:10.826Z,5.10
2019-04-11T21:26:37.256Z,4.60
2019-04-11T21:29:03.801Z,4.40
2019-04-11T21:31:31.241Z,4.12
2019-04-11T21:33:58.116Z,4.85
2019-04-11T21:36:27.019Z,4.78
2019-04-11T21:38:53.571Z,5.17
2019-04-11T21:41:19.796Z,4.80
2019-04-11T21:43:46.296Z,4.90
2019-04-11T21:46:12.590Z,4.70
2019-04-11T21:48:39.126Z,4.65
2019-04-11T21:51:05.541Z,4.75
2019-04-11T21:53:36.895Z,4.97
2019-04-11T21:56:00.034Z,4.45
2019-04-11T21:58:26.862Z,4.58
2019-04-11T22:01:02.609Z,4.62
2019-04-11T22:03:30.983Z,4.62
2019-04-11T22:05:59.644Z,4.47
2019-04-11T22:08:25.684Z,4.55
2019-04-11T22:10:52.106Z,4.65
2019-04-11T22:13:18.475Z,4.83
2019-04-11T22:15:46.920Z,5.45
2019-04-11T22:18:16.710Z,5.08
2019-04-11T22:20:41.438Z,4.97
2019-04-11T22:23:07.756Z,4.83
2019-04-11T22:25:34.094Z,5.08
2019-04-11T22:28:00.624Z,4.80
2019-04-11T22:30:26.870Z,5.20
2019-04-11T22:32:57.427Z,5.00
2019-04-11T22:35:23.280Z,4.78
2019-04-11T22:37:49.630Z,5.10
2019-04-11T22:40:16.027Z,5.12
2019-04-11T22:42:42.281Z,4.90
2019-04-11T22:45:09.192Z,4.75
2019-04-11T22:47:35.954Z,5.00
2019-04-11T22:50:04.134Z,5.20
2019-04-11T22:52:30.540Z,5.20
2019-04-11T22:54:56.842Z,5.30
2019-04-11T22:57:25.056Z,5.20
2019-04-11T22:59:51.304Z,5.17
2019-04-11T23:02:19.786Z,5.28
2019-04-11T23:04:47.068Z,5.30
2019-04-11T23:07:15.010Z,5.87
2019-04-11T23:09:42.447Z,5.45
2019-04-11T23:12:08.697Z,5.35
2019-04-11T23:14:35.130Z,5.60
2019-04-11T23:17:03.056Z,5.45
2019-04-11T23:19:29.333Z,6.08
2019-04-11T23:22:15.476Z,5.60
2019-04-11T23:24:41.768Z,5.78
2019-04-11T23:27:08.049Z,5.45
2019-04-11T23:29:34.400Z,5.70
2019-04-11T23:32:00.980Z,5.58
2019-04-11T23:34:27.252Z,5.78
2019-04-11T23:36:53.722Z,5.53
2019-04-11T23:39:22.659Z,5.92
2019-04-11T23:41:49.897Z,5.92
2019-04-11T23:44:20.354Z,5.90
2019-04-11T23:46:44.957Z,5.40
2019-04-11T23:49:11.222Z,5.92
2019-04-11T23:51:37.526Z,5.95
2019-04-11T23:54:03.861Z,5.62
2019-04-11T23:56:30.742Z,6.12
2019-04-11T23:59:01.613Z,6.15
